Huvudsida
METAR-TAF:

METAR-TAF

Flygplatser :

Tarbes Lourdes, Frankrike

latitud: 43-11N, longitud: 000-00W, höjd: 379 m

Aktuellt väderrapport

Denna rapport gjordes för 28 minuter sedan, klockan 04:30 UTC
Vind 5 kt från syd
Temperatur 2°C
Fuktighet 93%
Tryck 1033 hPa
Sikt 10 km eller mer
Inga moln under 1 500 m eller inga cumulonimbus

METAR: LFBT 190430Z AUTO 17005KT CAVOK 02/01 Q1033 NOSIG

Tid: 05:58 (04:58 UTC)

Väderprognos

Denna rapport gjordes för 5 timmar och 58 minuter sedan, klockan 23:00 UTC
Prognos gäller från 19 kl. 00 UTC till 19 kl. 24 UTC
Vind 6 kt från sydväst
Sikt 10 km eller mer
Spridda moln på en höjd av 3000 ft
Spridda moln på en höjd av 6000 ft
Blir
från 19 kl. 11 UTC till 19 kl. 13 UTC
Vind 10 kt från väst/nordväst
Blir
från 19 kl. 16 UTC till 19 kl. 18 UTC
Vind 2 kt varierande vindriktning
Sikt 10 km eller mer
Inga moln under 1 500 m eller inga cumulonimbus

TAF: LFBT 182300Z 1900/1924 23006KT 9999 SCT030 SCT060 BECMG 1911/1913 30010KT BECMG 1916/1918 VRB02KT CAVOK

Aktuella väderrapporter och prognoser från 4000 flygplatser (METAR- och TAF-rapporter).

De tillgängliga stationerna syns som gula och röda prickar på kartan.

För musen över prickarna för att se namnen på stationerna.

Klicka sedan för att få väderrapporter och prognoser.

För att ändra kartan: Klicka på de gröna knapparna med ett svart kors på för att zooma in; den gröna knappen med ett streck på för att zooma ut; eller på de gröna pilarna för angränsande kartor.


METAR-TAF: